LEGR Airport Information

Runway Information
Runway 09 Length 9514 ft width 148 ft
Elevation 1842 ft Threshold 0 ft Heading 90
Runway 27 Length 9514 ft Width 148 ft
Elevation 1860 ft Threshold 0 ft Heading 270
Airport Frequencies
Type GND Name GND Frequency 121.7 MHZ
Type TWR Name TWR Frequency 118.85 MHZ
Airport Navaids
Type VOR-DME Name Granada Frequency 113400 KHZ
Airport Weather Information & NOTAM
ADDS - METARS form results

(0209 UTC 14 April 2021)
Data provider http://aviationweather.gov/metar/data/
 
METAR text: LEGR 140200Z AUTO VRB02KT 9999 BKN100 13/10 Q1018
Conditions at: LEGR (GRANADA AIRPORT , ES) observed 0200 UTC 14 April 2021
Temperature: 13.0°C (55°F)
Dewpoint: 10.0°C (50°F) [RH = 82%]
Pressure (altimeter): 30.06 inches Hg (1018.0 mb)
Winds: variable direction winds at 2 MPH (2 knots; 1.0 m/s)
Visibility: 6 or more miles (10+ km)
Ceiling: 10000 feet AGL
Clouds: broken clouds at 10000 feet AGL
Weather: no significant weather observed at this time

METAR text: LEGR 140130Z AUTO VRB01KT CAVOK 13/10 Q1019
Conditions at: LEGR (GRANADA AIRPORT , ES) observed 0130 UTC 14 April 2021
Temperature: 13.0°C (55°F)
Dewpoint: 10.0°C (50°F) [RH = 82%]
Pressure (altimeter): 30.09 inches Hg (1019.0 mb)
Winds: variable direction winds at 1 MPH (1 knots; 0.5 m/s)
Visibility: 6 or more miles (10+ km)
Ceiling: ceiling and visibility are OK
Clouds: unknown
Weather: no significant weather observed at this time

Forecast for: LEGR (GRANADA AIRPORT , ES)
Text: TAF LEGR 132000Z 1321/1421 VRB02KT 9999 FEW050 TX19/1415Z TN09/1406Z
Forecast period: 2100 UTC 13 April 2021 to 2100 UTC 14 April 2021
Forecast type: FROM: standard forecast or significant change
Winds: variable direction winds at 2 MPH (2 knots; 1.0 m/s)
Visibility: 6 or more miles (10+ km)
Ceiling: at least 12,000 feet AGL
Clouds: few clouds at 5000 feet AGL
Weather: no significant weather forecast for this period
Text: PROB40
Forecast period: 0900 to 1500 UTC 14 April 2021
Forecast type: TEMPORARY: The following changes expected for less than half the time period
Winds: from the SSE (150 degrees) at 12 MPH (10 knots; 5.1 m/s)
Visibility: missing
Ceiling: unknown
Clouds: missing
Weather: no significant weather forecast for this period
Text: TEMPO 1409/1415 15010KT
Forecast period: 1200 to 2000 UTC 14 April 2021
Forecast type: TEMPORARY: The following changes expected for less than half the time period
Visibility: 2.49 miles (4.01 km)
Ceiling: at least 12,000 feet AGL
Clouds: scattered clouds at 4000 feet AGL
Weather: SHRA  (rain showers)